PWSweather.com
Personal Weather Stations
Station Observations
WESTON01
WestonSuperMareGB BS22 8RT

WestonSuperMareGB BS22 8RT

Lat: 51.351508, Lon: -2.933373

Elevation: 15

Station Type: Fine Offset WH1080

http://www.westonweather.co.uk

High Low Average
Temperature 58.9°F14.9°C 43.4°F6.3°C 50.7°F10.4°C
Dew Point 48.6°F9.2°C 40.1°F4.5°C 44.7°F7.1°C
Winds 9.8 mph 15.8 kmh 0.5 mph 0.8 kmh 6.0 mph S9.7 kmh S
Wind Gusts 14.3 mph23.0 kmh 2.7 mph4.3 kmh 9.0 mph14.5 kmh
Humidity 89% 65% 80%
Pressure 30.35 in1027.8 mb 30.09 in1019.0 mb -
Precipitation 0.00 in0.0 mm - -
Hour Temp Dew Point Humidity Winds Wind Gusts Pressure Precip Precip Rate Daily Precip Total
12:00 AM 49.2°F9.6°C 43.6°F6.4°C 81% 7.2 mph S11.6 kmh S 12.2 mph19.6 kmh 30.09 in1019.0 mb 0.00 in0.0 mm 0.00 in0.0 mm 0.00 in0.0 mm
12:05 AM 49.2°F9.6°C 43.9°F6.6°C 82% 7.5 mph S12.1 kmh S 10.1 mph16.3 kmh 30.09 in1019.0 mb 0.00 in0.0 mm 0.00 in0.0 mm 0.00 in0.0 mm
12:10 AM 49.2°F9.6°C 43.9°F6.6°C 82% 8.0 mph S12.9 kmh S 10.1 mph16.3 kmh 30.09 in1019.0 mb 0.00 in0.0 mm 0.00 in0.0 mm 0.00 in0.0 mm
12:15 AM 49.4°F9.7°C 44.1°F6.7°C 82% 7.5 mph S12.1 kmh S 8.6 mph13.8 kmh 30.09 in1019.0 mb 0.00 in0.0 mm 0.00 in0.0 mm 0.00 in0.0 mm
12:20 AM 49.4°F9.7°C 44.1°F6.7°C 82% 7.6 mph SSW12.2 kmh SSW 9.8 mph15.8 kmh 30.09 in1019.0 mb 0.00 in0.0 mm 0.00 in0.0 mm 0.00 in0.0 mm
12:25 AM 49.4°F9.7°C 44.1°F6.7°C 82% 7.1 mph SSW11.4 kmh SSW 9.8 mph15.8 kmh 30.09 in1019.0 mb 0.00 in0.0 mm 0.00 in0.0 mm 0.00 in0.0 mm
12:30 AM 49.4°F9.7°C 44.1°F6.7°C 82% 5.3 mph SSW8.5 kmh SSW 9.8 mph15.8 kmh 30.09 in1019.0 mb 0.00 in0.0 mm 0.00 in0.0 mm 0.00 in0.0 mm
12:35 AM 49.4°F9.7°C 44.1°F6.7°C 82% 6.0 mph S9.7 kmh S 9.8 mph15.8 kmh 30.09 in1019.0 mb 0.00 in0.0 mm 0.00 in0.0 mm 0.00 in0.0 mm
12:40 AM 49.4°F9.7°C 44.1°F6.7°C 82% 7.1 mph S11.4 kmh S 9.8 mph15.8 kmh 30.09 in1019.0 mb 0.00 in0.0 mm 0.00 in0.0 mm 0.00 in0.0 mm
12:45 AM 49.4°F9.7°C 44.1°F6.7°C 82% 7.6 mph S12.2 kmh S 10.4 mph16.7 kmh 30.09 in1019.0 mb 0.00 in0.0 mm 0.00 in0.0 mm 0.00 in0.0 mm
12:50 AM 49.2°F9.6°C 43.9°F6.6°C 82% 7.2 mph S11.6 kmh S 10.4 mph16.7 kmh 30.09 in1019.0 mb 0.00 in0.0 mm 0.00 in0.0 mm 0.00 in0.0 mm
12:55 AM 49.2°F9.6°C 43.9°F6.6°C 82% 6.4 mph S10.3 kmh S 8.0 mph12.9 kmh 30.09 in1019.0 mb 0.00 in0.0 mm 0.00 in0.0 mm 0.00 in0.0 mm
01:00 AM 49.2°F9.6°C 43.9°F6.6°C 82% 7.4 mph S11.9 kmh S 11.6 mph18.7 kmh 30.09 in1019.0 mb 0.00 in0.0 mm 0.00 in0.0 mm 0.00 in0.0 mm
01:05 AM 49.0°F9.4°C 43.8°F6.6°C 82% 6.4 mph S10.3 kmh S 11.6 mph18.7 kmh 30.09 in1019.0 mb 0.00 in0.0 mm 0.00 in0.0 mm 0.00 in0.0 mm
01:10 AM 48.8°F9.3°C 43.6°F6.4°C 82% 6.0 mph S9.7 kmh S 8.6 mph13.8 kmh 30.09 in1019.0 mb 0.00 in0.0 mm 0.00 in0.0 mm 0.00 in0.0 mm
01:15 AM 48.7°F9.3°C 43.4°F6.3°C 82% 6.4 mph S10.3 kmh S 8.6 mph13.8 kmh 30.09 in1019.0 mb 0.00 in0.0 mm 0.00 in0.0 mm 0.00 in0.0 mm
01:20 AM 48.5°F9.2°C 43.5°F6.4°C 83% 6.4 mph S10.3 kmh S 8.0 mph12.9 kmh 30.09 in1019.0 mb 0.00 in0.0 mm 0.00 in0.0 mm 0.00 in0.0 mm
01:25 AM 48.3°F9.1°C 43.4°F6.3°C 83% 6.7 mph S10.8 kmh S 8.6 mph13.8 kmh 30.09 in1019.0 mb 0.00 in0.0 mm 0.00 in0.0 mm 0.00 in0.0 mm
01:30 AM 48.3°F9.1°C 43.4°F6.3°C 83% 6.7 mph S10.8 kmh S 8.6 mph13.8 kmh 30.09 in1019.0 mb 0.00 in0.0 mm 0.00 in0.0 mm 0.00 in0.0 mm
01:35 AM 48.3°F9.1°C 43.4°F6.3°C 83% 5.8 mph SSW9.3 kmh SSW 8.3 mph13.4 kmh 30.09 in1019.0 mb 0.00 in0.0 mm 0.00 in0.0 mm 0.00 in0.0 mm
01:40 AM 48.3°F9.1°C 43.4°F6.3°C 83% 5.2 mph SSW8.4 kmh SSW 7.1 mph11.4 kmh 30.09 in1019.0 mb 0.00 in0.0 mm 0.00 in0.0 mm 0.00 in0.0 mm
01:45 AM 48.1°F8.9°C 43.2°F6.2°C 83% 5.9 mph SSW9.5 kmh SSW 8.3 mph13.4 kmh 30.09 in1019.0 mb 0.00 in0.0 mm 0.00 in0.0 mm 0.00 in0.0 mm
01:50 AM 48.1°F8.9°C 43.2°F6.2°C 83% 7.0 mph S11.3 kmh S 8.3 mph13.4 kmh 30.09 in1019.0 mb 0.00 in0.0 mm 0.00 in0.0 mm 0.00 in0.0 mm
01:55 AM 48.1°F8.9°C 43.5°F6.4°C 84% 6.8 mph S10.9 kmh S 8.6 mph13.8 kmh 30.09 in1019.0 mb 0.00 in0.0 mm 0.00 in0.0 mm 0.00 in0.0 mm
02:00 AM 48.1°F8.9°C 43.5°F6.4°C 84% 6.9 mph S11.1 kmh S 11.3 mph18.2 kmh 30.09 in1019.0 mb 0.00 in0.0 mm 0.00 in0.0 mm 0.00 in0.0 mm
02:05 AM 48.1°F8.9°C 43.5°F6.4°C 84% 6.8 mph S10.9 kmh S 11.3 mph18.2 kmh 30.09 in1019.0 mb 0.00 in0.0 mm 0.00 in0.0 mm 0.00 in0.0 mm
02:10 AM 48.1°F8.9°C 43.5°F6.4°C 84% 7.0 mph S11.3 kmh S 11.3 mph18.2 kmh 30.09 in1019.0 mb 0.00 in0.0 mm 0.00 in0.0 mm 0.00 in0.0 mm
02:15 AM 48.1°F8.9°C 43.5°F6.4°C 84% 6.9 mph S11.1 kmh S 11.6 mph18.7 kmh 30.09 in1019.0 mb 0.00 in0.0 mm 0.00 in0.0 mm 0.00 in0.0 mm
02:20 AM 48.1°F8.9°C 43.5°F6.4°C 84% 7.4 mph SSE11.9 kmh SSE 13.1 mph21.1 kmh 30.09 in1019.0 mb 0.00 in0.0 mm 0.00 in0.0 mm 0.00 in0.0 mm
02:25 AM 48.3°F9.1°C 43.7°F6.5°C 84% 8.0 mph S12.9 kmh S 13.1 mph21.1 kmh 30.09 in1019.0 mb 0.00 in0.0 mm 0.00 in0.0 mm 0.00 in0.0 mm
02:30 AM 48.3°F9.1°C 43.7°F6.5°C 84% 8.5 mph S13.7 kmh S 13.1 mph21.1 kmh 30.09 in1019.0 mb 0.00 in0.0 mm 0.00 in0.0 mm 0.00 in0.0 mm
02:35 AM 48.3°F9.1°C 43.7°F6.5°C 84% 8.2 mph S13.2 kmh S 12.8 mph20.6 kmh 30.09 in1019.0 mb 0.00 in0.0 mm 0.00 in0.0 mm 0.00 in0.0 mm
02:40 AM 48.3°F9.1°C 43.7°F6.5°C 84% 7.3 mph SSW11.7 kmh SSW 11.3 mph18.2 kmh 30.09 in1019.0 mb 0.00 in0.0 mm 0.00 in0.0 mm 0.00 in0.0 mm
02:45 AM 48.3°F9.1°C 43.7°F6.5°C 84% 7.2 mph S11.6 kmh S 10.4 mph16.7 kmh 30.09 in1019.0 mb 0.00 in0.0 mm 0.00 in0.0 mm 0.00 in0.0 mm
02:50 AM 48.3°F9.1°C 43.7°F6.5°C 84% 7.1 mph SSW11.4 kmh SSW 10.7 mph17.2 kmh 30.09 in1019.0 mb 0.00 in0.0 mm 0.00 in0.0 mm 0.00 in0.0 mm
02:55 AM 48.1°F8.9°C 43.8°F6.6°C 85% 6.2 mph SSW10.0 kmh SSW 10.7 mph17.2 kmh 30.09 in1019.0 mb 0.00 in0.0 mm 0.00 in0.0 mm 0.00 in0.0 mm
03:00 AM 48.1°F8.9°C 43.8°F6.6°C 85% 6.2 mph SSW10.0 kmh SSW 8.3 mph13.4 kmh 30.09 in1019.0 mb 0.00 in0.0 mm 0.00 in0.0 mm 0.00 in0.0 mm
03:05 AM 48.1°F8.9°C 43.8°F6.6°C 85% 6.7 mph S10.8 kmh S 8.3 mph13.4 kmh 30.09 in1019.0 mb 0.00 in0.0 mm 0.00 in0.0 mm 0.00 in0.0 mm
03:10 AM 48.1°F8.9°C 43.8°F6.6°C 85% 7.4 mph S11.9 kmh S 9.5 mph15.3 kmh 30.09 in1019.0 mb 0.00 in0.0 mm 0.00 in0.0 mm 0.00 in0.0 mm
03:15 AM 48.3°F9.1°C 44.0°F6.7°C 85% 7.6 mph S12.2 kmh S 9.5 mph15.3 kmh 30.09 in1019.0 mb 0.00 in0.0 mm 0.00 in0.0 mm 0.00 in0.0 mm
03:20 AM 48.3°F9.1°C 44.0°F6.7°C 85% 7.0 mph S11.3 kmh S 11.9 mph19.2 kmh 30.09 in1019.0 mb 0.00 in0.0 mm 0.00 in0.0 mm 0.00 in0.0 mm
03:25 AM 48.5°F9.2°C 44.2°F6.8°C 85% 7.2 mph S11.6 kmh S 11.9 mph19.2 kmh 30.09 in1019.0 mb 0.00 in0.0 mm 0.00 in0.0 mm 0.00 in0.0 mm
03:30 AM 48.7°F9.3°C 44.3°F6.8°C 85% 8.1 mph S13.0 kmh S 10.1 mph16.3 kmh 30.09 in1019.0 mb 0.00 in0.0 mm 0.00 in0.0 mm 0.00 in0.0 mm
03:35 AM 48.7°F9.3°C 44.3°F6.8°C 85% 7.5 mph S12.1 kmh S 10.4 mph16.7 kmh 30.09 in1019.0 mb 0.00 in0.0 mm 0.00 in0.0 mm 0.00 in0.0 mm
03:40 AM 48.8°F9.3°C 44.5°F6.9°C 85% 7.5 mph S12.1 kmh S 10.4 mph16.7 kmh 30.12 in1020.0 mb 0.00 in0.0 mm 0.00 in0.0 mm 0.00 in0.0 mm
03:45 AM 48.8°F9.3°C 44.5°F6.9°C 85% 8.5 mph S13.7 kmh S 10.4 mph16.7 kmh 30.12 in1020.0 mb 0.00 in0.0 mm 0.00 in0.0 mm 0.00 in0.0 mm
03:50 AM 49.0°F9.4°C 44.7°F7.1°C 85% 9.6 mph S15.4 kmh S 14.3 mph23.0 kmh 30.12 in1020.0 mb 0.00 in0.0 mm 0.00 in0.0 mm 0.00 in0.0 mm
03:55 AM 49.0°F9.4°C 44.7°F7.1°C 85% 9.8 mph S15.8 kmh S 14.3 mph23.0 kmh 30.09 in1019.0 mb 0.00 in0.0 mm 0.00 in0.0 mm 0.00 in0.0 mm
04:00 AM 49.0°F9.4°C 44.7°F7.1°C 85% 8.9 mph S14.3 kmh S 11.9 mph19.2 kmh 30.09 in1019.0 mb 0.00 in0.0 mm 0.00 in0.0 mm 0.00 in0.0 mm
04:05 AM 49.0°F9.4°C 44.7°F7.1°C 85% 7.8 mph SSW12.6 kmh SSW 10.1 mph16.3 kmh 30.09 in1019.0 mb 0.00 in0.0 mm 0.00 in0.0 mm 0.00 in0.0 mm
04:10 AM 49.0°F9.4°C 44.7°F7.1°C 85% 7.2 mph SSW11.6 kmh SSW 10.1 mph16.3 kmh 30.12 in1020.0 mb 0.00 in0.0 mm 0.00 in0.0 mm 0.00 in0.0 mm
04:15 AM 49.0°F9.4°C 44.7°F7.1°C 85% 6.6 mph SSW10.6 kmh SSW 8.3 mph13.4 kmh 30.12 in1020.0 mb 0.00 in0.0 mm 0.00 in0.0 mm 0.00 in0.0 mm
04:20 AM 49.0°F9.4°C 44.7°F7.1°C 85% 6.4 mph SSW10.3 kmh SSW 8.6 mph13.8 kmh 30.12 in1020.0 mb 0.00 in0.0 mm 0.00 in0.0 mm 0.00 in0.0 mm
04:25 AM 49.0°F9.4°C 44.7°F7.1°C 85% 6.0 mph SSW9.7 kmh SSW 8.6 mph13.8 kmh 30.12 in1020.0 mb 0.00 in0.0 mm 0.00 in0.0 mm 0.00 in0.0 mm
04:30 AM 49.0°F9.4°C 44.7°F7.1°C 85% 6.2 mph S10.0 kmh S 8.0 mph12.9 kmh 30.12 in1020.0 mb 0.00 in0.0 mm 0.00 in0.0 mm 0.00 in0.0 mm
04:35 AM 49.0°F9.4°C 44.7°F7.1°C 85% 6.2 mph S10.0 kmh S 8.0 mph12.9 kmh 30.12 in1020.0 mb 0.00 in0.0 mm 0.00 in0.0 mm 0.00 in0.0 mm
04:40 AM 49.0°F9.4°C 44.7°F7.1°C 85% 6.8 mph S10.9 kmh S 10.1 mph16.3 kmh 30.12 in1020.0 mb 0.00 in0.0 mm 0.00 in0.0 mm 0.00 in0.0 mm
04:45 AM 49.0°F9.4°C 44.7°F7.1°C 85% 6.6 mph S10.6 kmh S 10.1 mph16.3 kmh 30.12 in1020.0 mb 0.00 in0.0 mm 0.00 in0.0 mm 0.00 in0.0 mm
04:50 AM 49.0°F9.4°C 44.7°F7.1°C 85% 5.5 mph S8.9 kmh S 8.6 mph13.8 kmh 30.12 in1020.0 mb 0.00 in0.0 mm 0.00 in0.0 mm 0.00 in0.0 mm
04:55 AM 49.0°F9.4°C 44.7°F7.1°C 85% 5.7 mph S9.2 kmh S 7.1 mph11.4 kmh 30.12 in1020.0 mb 0.00 in0.0 mm 0.00 in0.0 mm 0.00 in0.0 mm
05:00 AM 49.0°F9.4°C 45.0°F7.2°C 86% 6.4 mph S10.3 kmh S 8.0 mph12.9 kmh 30.12 in1020.0 mb 0.00 in0.0 mm 0.00 in0.0 mm 0.00 in0.0 mm
05:05 AM 49.2°F9.6°C 45.2°F7.3°C 86% 6.0 mph SSW9.7 kmh SSW 8.0 mph12.9 kmh 30.12 in1020.0 mb 0.00 in0.0 mm 0.00 in0.0 mm 0.00 in0.0 mm
05:10 AM 49.2°F9.6°C 45.2°F7.3°C 86% 6.1 mph SSW9.8 kmh SSW 9.5 mph15.3 kmh 30.12 in1020.0 mb 0.00 in0.0 mm 0.00 in0.0 mm 0.00 in0.0 mm
05:15 AM 49.0°F9.4°C 45.0°F7.2°C 86% 6.7 mph S10.8 kmh S 9.5 mph15.3 kmh 30.12 in1020.0 mb 0.00 in0.0 mm 0.00 in0.0 mm 0.00 in0.0 mm
05:20 AM 49.0°F9.4°C 44.7°F7.1°C 85% 7.2 mph SSW11.6 kmh SSW 9.2 mph14.8 kmh 30.12 in1020.0 mb 0.00 in0.0 mm 0.00 in0.0 mm 0.00 in0.0 mm
05:25 AM 49.0°F9.4°C 44.7°F7.1°C 85% 6.6 mph SSW10.6 kmh SSW 9.2 mph14.8 kmh 30.15 in1021.0 mb 0.00 in0.0 mm 0.00 in0.0 mm 0.00 in0.0 mm
05:35 AM 48.8°F9.3°C 44.8°F7.1°C 86% 4.6 mph SSW7.4 kmh SSW 6.0 mph9.7 kmh 30.15 in1021.0 mb 0.00 in0.0 mm 0.00 in0.0 mm 0.00 in0.0 mm
05:40 AM 48.7°F9.3°C 44.7°F7.1°C 86% 5.0 mph SSW8.0 kmh SSW 7.1 mph11.4 kmh 30.15 in1021.0 mb 0.00 in0.0 mm 0.00 in0.0 mm 0.00 in0.0 mm
05:45 AM 48.8°F9.3°C 44.8°F7.1°C 86% 5.8 mph SSW9.3 kmh SSW 7.1 mph11.4 kmh 30.15 in1021.0 mb 0.00 in0.0 mm 0.00 in0.0 mm 0.00 in0.0 mm
05:50 AM 48.8°F9.3°C 44.8°F7.1°C 86% 6.2 mph SSW10.0 kmh SSW 7.4 mph11.9 kmh 30.15 in1021.0 mb 0.00 in0.0 mm 0.00 in0.0 mm 0.00 in0.0 mm
05:55 AM 48.8°F9.3°C 44.8°F7.1°C 86% 6.0 mph SSW9.7 kmh SSW 7.4 mph11.9 kmh 30.15 in1021.0 mb 0.00 in0.0 mm 0.00 in0.0 mm 0.00 in0.0 mm
06:00 AM 48.8°F9.3°C 44.8°F7.1°C 86% 5.1 mph S8.2 kmh S 8.3 mph13.4 kmh 30.15 in1021.0 mb 0.00 in0.0 mm 0.00 in0.0 mm 0.00 in0.0 mm
06:05 AM 48.8°F9.3°C 44.8°F7.1°C 86% 4.4 mph S7.1 kmh S 8.3 mph13.4 kmh 30.15 in1021.0 mb 0.00 in0.0 mm 0.00 in0.0 mm 0.00 in0.0 mm
06:10 AM 48.8°F9.3°C 44.8°F7.1°C 86% 3.3 mph SSW5.3 kmh SSW 5.4 mph8.7 kmh 30.15 in1021.0 mb 0.00 in0.0 mm 0.00 in0.0 mm 0.00 in0.0 mm
06:15 AM 48.8°F9.3°C 44.8°F7.1°C 86% 4.2 mph SSW6.8 kmh SSW 8.0 mph12.9 kmh 30.15 in1021.0 mb 0.00 in0.0 mm 0.00 in0.0 mm 0.00 in0.0 mm
06:20 AM 48.8°F9.3°C 44.8°F7.1°C 86% 4.7 mph S7.6 kmh S 8.0 mph12.9 kmh 30.15 in1021.0 mb 0.00 in0.0 mm 0.00 in0.0 mm 0.00 in0.0 mm
06:25 AM 48.8°F9.3°C 44.8°F7.1°C 86% 4.4 mph S7.1 kmh S 8.0 mph12.9 kmh 30.15 in1021.0 mb 0.00 in0.0 mm 0.00 in0.0 mm 0.00 in0.0 mm
06:30 AM 48.8°F9.3°C 44.8°F7.1°C 86% 5.4 mph SSW8.7 kmh SSW 7.4 mph11.9 kmh 30.15 in1021.0 mb 0.00 in0.0 mm 0.00 in0.0 mm 0.00 in0.0 mm
06:35 AM 48.8°F9.3°C 44.8°F7.1°C 86% 4.5 mph SSW7.2 kmh SSW 7.4 mph11.9 kmh 30.15 in1021.0 mb 0.00 in0.0 mm 0.00 in0.0 mm 0.00 in0.0 mm
06:40 AM 48.7°F9.3°C 45.0°F7.2°C 87% 3.8 mph S6.1 kmh S 6.5 mph10.5 kmh 30.15 in1021.0 mb 0.00 in0.0 mm 0.00 in0.0 mm 0.00 in0.0 mm
06:45 AM 48.7°F9.3°C 45.0°F7.2°C 87% 5.8 mph S9.3 kmh S 9.2 mph14.8 kmh 30.15 in1021.0 mb 0.00 in0.0 mm 0.00 in0.0 mm 0.00 in0.0 mm
06:50 AM 48.8°F9.3°C 45.1°F7.3°C 87% 6.8 mph S10.9 kmh S 9.2 mph14.8 kmh 30.15 in1021.0 mb 0.00 in0.0 mm 0.00 in0.0 mm 0.00 in0.0 mm
06:55 AM 48.8°F9.3°C 45.1°F7.3°C 87% 7.1 mph SSW11.4 kmh SSW 7.7 mph12.4 kmh 30.15 in1021.0 mb 0.00 in0.0 mm 0.00 in0.0 mm 0.00 in0.0 mm
07:00 AM 48.8°F9.3°C 45.1°F7.3°C 87% 7.9 mph SSW12.7 kmh SSW 12.8 mph20.6 kmh 30.15 in1021.0 mb 0.00 in0.0 mm 0.00 in0.0 mm 0.00 in0.0 mm
07:05 AM 49.0°F9.4°C 45.3°F7.4°C 87% 7.7 mph SW12.4 kmh SW 12.8 mph20.6 kmh 30.15 in1021.0 mb 0.00 in0.0 mm 0.00 in0.0 mm 0.00 in0.0 mm
07:10 AM 49.0°F9.4°C 45.3°F7.4°C 87% 6.9 mph SSW11.1 kmh SSW 8.6 mph13.8 kmh 30.15 in1021.0 mb 0.00 in0.0 mm 0.00 in0.0 mm 0.00 in0.0 mm
07:15 AM 49.0°F9.4°C 45.3°F7.4°C 87% 7.4 mph SSW11.9 kmh SSW 8.9 mph14.3 kmh 30.15 in1021.0 mb 0.00 in0.0 mm 0.00 in0.0 mm 0.00 in0.0 mm
07:20 AM 48.8°F9.3°C 45.1°F7.3°C 87% 7.8 mph SSW12.6 kmh SSW 8.9 mph14.3 kmh 30.15 in1021.0 mb 0.00 in0.0 mm 0.00 in0.0 mm 0.00 in0.0 mm
07:25 AM 48.8°F9.3°C 45.1°F7.3°C 87% 8.6 mph SSW13.8 kmh SSW 10.1 mph16.3 kmh 30.15 in1021.0 mb 0.00 in0.0 mm 0.00 in0.0 mm 0.00 in0.0 mm
07:30 AM 48.8°F9.3°C 45.1°F7.3°C 87% 8.2 mph SSW13.2 kmh SSW 10.1 mph16.3 kmh 30.15 in1021.0 mb 0.00 in0.0 mm 0.00 in0.0 mm 0.00 in0.0 mm
07:35 AM 48.8°F9.3°C 45.1°F7.3°C 87% 7.7 mph S12.4 kmh S 10.1 mph16.3 kmh 30.15 in1021.0 mb 0.00 in0.0 mm 0.00 in0.0 mm 0.00 in0.0 mm
07:40 AM 49.0°F9.4°C 45.3°F7.4°C 87% 6.2 mph SSW10.0 kmh SSW 10.1 mph16.3 kmh 30.15 in1021.0 mb 0.00 in0.0 mm 0.00 in0.0 mm 0.00 in0.0 mm
07:45 AM 49.0°F9.4°C 45.6°F7.6°C 88% 5.2 mph SSW8.4 kmh SSW 9.5 mph15.3 kmh 30.15 in1021.0 mb 0.00 in0.0 mm 0.00 in0.0 mm 0.00 in0.0 mm
07:50 AM 49.0°F9.4°C 45.6°F7.6°C 88% 5.3 mph SSW8.5 kmh SSW 9.5 mph15.3 kmh 30.15 in1021.0 mb 0.00 in0.0 mm 0.00 in0.0 mm 0.00 in0.0 mm
07:55 AM 49.2°F9.6°C 45.8°F7.7°C 88% 5.7 mph SSW9.2 kmh SSW 8.6 mph13.8 kmh 30.21 in1023.0 mb 0.00 in0.0 mm 0.00 in0.0 mm 0.00 in0.0 mm
08:00 AM 49.4°F9.7°C 46.0°F7.8°C 88% 5.8 mph SSW9.3 kmh SSW 8.6 mph13.8 kmh 30.21 in1023.0 mb 0.00 in0.0 mm 0.00 in0.0 mm 0.00 in0.0 mm
08:05 AM 49.4°F9.7°C 46.0°F7.8°C 88% 5.2 mph S8.4 kmh S 7.4 mph11.9 kmh 30.21 in1023.0 mb 0.00 in0.0 mm 0.00 in0.0 mm 0.00 in0.0 mm
08:10 AM 49.5°F9.7°C 46.1°F7.8°C 88% 4.5 mph S7.2 kmh S 7.4 mph11.9 kmh 30.21 in1023.0 mb 0.00 in0.0 mm 0.00 in0.0 mm 0.00 in0.0 mm
08:15 AM 49.5°F9.7°C 46.1°F7.8°C 88% 3.9 mph SSW6.3 kmh SSW 5.7 mph9.2 kmh 30.21 in1023.0 mb 0.00 in0.0 mm 0.00 in0.0 mm 0.00 in0.0 mm
08:20 AM 49.5°F9.7°C 46.1°F7.8°C 88% 4.2 mph SSW6.8 kmh SSW 5.4 mph8.7 kmh 30.21 in1023.0 mb 0.00 in0.0 mm 0.00 in0.0 mm 0.00 in0.0 mm
08:25 AM 49.7°F9.8°C 46.3°F7.9°C 88% 4.8 mph S7.7 kmh S 7.1 mph11.4 kmh 30.18 in1022.0 mb 0.00 in0.0 mm 0.00 in0.0 mm 0.00 in0.0 mm
08:30 AM 49.9°F9.9°C 46.5°F8.1°C 88% 6.0 mph SSW9.7 kmh SSW 8.6 mph13.8 kmh 30.18 in1022.0 mb 0.00 in0.0 mm 0.00 in0.0 mm 0.00 in0.0 mm
08:35 AM 49.9°F9.9°C 46.5°F8.1°C 88% 5.6 mph S9.0 kmh S 8.6 mph13.8 kmh 30.18 in1022.0 mb 0.00 in0.0 mm 0.00 in0.0 mm 0.00 in0.0 mm
08:40 AM 50.1°F10.1°C 46.7°F8.2°C 88% 4.9 mph S7.9 kmh S 6.2 mph10.0 kmh 30.21 in1023.0 mb 0.00 in0.0 mm 0.00 in0.0 mm 0.00 in0.0 mm
08:45 AM 50.1°F10.1°C 46.7°F8.2°C 88% 4.9 mph S7.9 kmh S 7.7 mph12.4 kmh 30.21 in1023.0 mb 0.00 in0.0 mm 0.00 in0.0 mm 0.00 in0.0 mm
08:50 AM 50.1°F10.1°C 46.7°F8.2°C 88% 4.6 mph S7.4 kmh S 8.3 mph13.4 kmh 30.21 in1023.0 mb 0.00 in0.0 mm 0.00 in0.0 mm 0.00 in0.0 mm
08:55 AM 50.5°F10.3°C 46.7°F8.2°C 87% 5.2 mph S8.4 kmh S 8.3 mph13.4 kmh 30.18 in1022.0 mb 0.00 in0.0 mm 0.00 in0.0 mm 0.00 in0.0 mm
09:00 AM 50.5°F10.3°C 46.7°F8.2°C 87% 5.0 mph SSW8.0 kmh SSW 7.7 mph12.4 kmh 30.18 in1022.0 mb 0.00 in0.0 mm 0.00 in0.0 mm 0.00 in0.0 mm
09:05 AM 50.8°F10.4°C 47.1°F8.4°C 87% 4.7 mph S7.6 kmh S 7.7 mph12.4 kmh 30.18 in1022.0 mb 0.00 in0.0 mm 0.00 in0.0 mm 0.00 in0.0 mm
09:10 AM 51.0°F10.6°C 47.3°F8.5°C 87% 4.9 mph S7.9 kmh S 7.7 mph12.4 kmh 30.21 in1023.0 mb 0.00 in0.0 mm 0.00 in0.0 mm 0.00 in0.0 mm
09:15 AM 51.2°F10.7°C 47.4°F8.6°C 87% 5.1 mph S8.2 kmh S 7.4 mph11.9 kmh 30.21 in1023.0 mb 0.00 in0.0 mm 0.00 in0.0 mm 0.00 in0.0 mm
09:20 AM 51.3°F10.7°C 47.3°F8.5°C 86% 5.4 mph SSW8.7 kmh SSW 8.3 mph13.4 kmh 30.21 in1023.0 mb 0.00 in0.0 mm 0.00 in0.0 mm 0.00 in0.0 mm
09:25 AM 51.5°F10.8°C 47.5°F8.6°C 86% 5.5 mph SSW8.9 kmh SSW 8.3 mph13.4 kmh 30.21 in1023.0 mb 0.00 in0.0 mm 0.00 in0.0 mm 0.00 in0.0 mm
09:30 AM 51.7°F10.9°C 47.7°F8.7°C 86% 5.9 mph S9.5 kmh S 7.7 mph12.4 kmh 30.21 in1023.0 mb 0.00 in0.0 mm 0.00 in0.0 mm 0.00 in0.0 mm
09:35 AM 51.9°F11.1°C 47.8°F8.8°C 86% 5.8 mph S9.3 kmh S 7.7 mph12.4 kmh 30.21 in1023.0 mb 0.00 in0.0 mm 0.00 in0.0 mm 0.00 in0.0 mm
09:40 AM 51.9°F11.1°C 47.8°F8.8°C 86% 6.3 mph S10.1 kmh S 8.3 mph13.4 kmh 30.21 in1023.0 mb 0.00 in0.0 mm 0.00 in0.0 mm 0.00 in0.0 mm
09:45 AM 52.1°F11.2°C 47.7°F8.7°C 85% 6.7 mph S10.8 kmh S 8.3 mph13.4 kmh 30.21 in1023.0 mb 0.00 in0.0 mm 0.00 in0.0 mm 0.00 in0.0 mm
09:50 AM 52.1°F11.2°C 47.7°F8.7°C 85% 6.1 mph S9.8 kmh S 8.3 mph13.4 kmh 30.21 in1023.0 mb 0.00 in0.0 mm 0.00 in0.0 mm 0.00 in0.0 mm
09:55 AM 52.4°F11.3°C 48.1°F8.9°C 85% 5.4 mph S8.7 kmh S 7.1 mph11.4 kmh 30.21 in1023.0 mb 0.00 in0.0 mm 0.00 in0.0 mm 0.00 in0.0 mm
10:00 AM 52.8°F11.6°C 48.4°F9.1°C 85% 5.8 mph SSW9.3 kmh SSW 10.1 mph16.3 kmh 30.21 in1023.0 mb 0.00 in0.0 mm 0.00 in0.0 mm 0.00 in0.0 mm
10:05 AM 53.0°F11.7°C 48.6°F9.2°C 85% 5.1 mph SSW8.2 kmh SSW 10.1 mph16.3 kmh 30.21 in1023.0 mb 0.00 in0.0 mm 0.00 in0.0 mm 0.00 in0.0 mm
10:10 AM 53.3°F11.8°C 48.6°F9.2°C 84% 5.2 mph SSW8.4 kmh SSW 8.0 mph12.9 kmh 30.21 in1023.0 mb 0.00 in0.0 mm 0.00 in0.0 mm 0.00 in0.0 mm
10:15 AM 53.3°F11.8°C 48.6°F9.2°C 84% 6.3 mph SSW10.1 kmh SSW 8.0 mph12.9 kmh 30.21 in1023.0 mb 0.00 in0.0 mm 0.00 in0.0 mm 0.00 in0.0 mm
10:20 AM 53.3°F11.8°C 48.6°F9.2°C 84% 7.3 mph SSW11.7 kmh SSW 10.7 mph17.2 kmh 30.21 in1023.0 mb 0.00 in0.0 mm 0.00 in0.0 mm 0.00 in0.0 mm
10:25 AM 53.3°F11.8°C 48.3°F9.1°C 83% 7.0 mph SSW11.3 kmh SSW 10.7 mph17.2 kmh 30.24 in1024.0 mb 0.00 in0.0 mm 0.00 in0.0 mm 0.00 in0.0 mm
10:30 AM 53.3°F11.8°C 48.3°F9.1°C 83% 5.7 mph SSW9.2 kmh SSW 9.8 mph15.8 kmh 30.24 in1024.0 mb 0.00 in0.0 mm 0.00 in0.0 mm 0.00 in0.0 mm
10:35 AM 53.3°F11.8°C 48.3°F9.1°C 83% 5.4 mph SSW8.7 kmh SSW 9.8 mph15.8 kmh 30.24 in1024.0 mb 0.00 in0.0 mm 0.00 in0.0 mm 0.00 in0.0 mm
10:40 AM 53.3°F11.8°C 48.0°F8.9°C 82% 5.1 mph SSW8.2 kmh SSW 7.1 mph11.4 kmh 30.24 in1024.0 mb 0.00 in0.0 mm 0.00 in0.0 mm 0.00 in0.0 mm
10:45 AM 53.3°F11.8°C 48.0°F8.9°C 82% 5.5 mph SSW8.9 kmh SSW 7.1 mph11.4 kmh 30.24 in1024.0 mb 0.00 in0.0 mm 0.00 in0.0 mm 0.00 in0.0 mm
10:50 AM 53.3°F11.8°C 48.0°F8.9°C 82% 5.1 mph SW8.2 kmh SW 6.5 mph10.5 kmh 30.24 in1024.0 mb 0.00 in0.0 mm 0.00 in0.0 mm 0.00 in0.0 mm
10:55 AM 53.3°F11.8°C 47.6°F8.7°C 81% 5.3 mph SW8.5 kmh SW 8.6 mph13.8 kmh 30.24 in1024.0 mb 0.00 in0.0 mm 0.00 in0.0 mm 0.00 in0.0 mm
11:00 AM 53.5°F11.9°C 47.8°F8.8°C 81% 6.5 mph SW10.5 kmh SW 14.0 mph22.5 kmh 30.24 in1024.0 mb 0.00 in0.0 mm 0.00 in0.0 mm 0.00 in0.0 mm
11:05 AM 53.5°F11.9°C 47.8°F8.8°C 81% 6.3 mph SW10.1 kmh SW 14.0 mph22.5 kmh 30.24 in1024.0 mb 0.00 in0.0 mm 0.00 in0.0 mm 0.00 in0.0 mm
11:10 AM 53.9°F12.2°C 47.8°F8.8°C 80% 6.3 mph SW10.1 kmh SW 14.0 mph22.5 kmh 30.24 in1024.0 mb 0.00 in0.0 mm 0.00 in0.0 mm 0.00 in0.0 mm
11:15 AM 54.2°F12.3°C 47.9°F8.8°C 79% 6.6 mph SW10.6 kmh SW 9.5 mph15.3 kmh 30.24 in1024.0 mb 0.00 in0.0 mm 0.00 in0.0 mm 0.00 in0.0 mm
11:20 AM 54.2°F12.3°C 47.5°F8.6°C 78% 5.0 mph SW8.0 kmh SW 9.5 mph15.3 kmh 30.24 in1024.0 mb 0.00 in0.0 mm 0.00 in0.0 mm 0.00 in0.0 mm
11:25 AM 54.2°F12.3°C 47.5°F8.6°C 78% 4.5 mph S7.2 kmh S 8.3 mph13.4 kmh 30.24 in1024.0 mb 0.00 in0.0 mm 0.00 in0.0 mm 0.00 in0.0 mm
11:30 AM 54.4°F12.4°C 47.3°F8.5°C 77% 5.4 mph SSW8.7 kmh SSW 7.7 mph12.4 kmh 30.24 in1024.0 mb 0.00 in0.0 mm 0.00 in0.0 mm 0.00 in0.0 mm
11:35 AM 54.6°F12.6°C 47.5°F8.6°C 77% 5.3 mph SW8.5 kmh SW 10.1 mph16.3 kmh 30.24 in1024.0 mb 0.00 in0.0 mm 0.00 in0.0 mm 0.00 in0.0 mm
11:40 AM 54.4°F12.4°C 47.0°F8.3°C 76% 6.0 mph SW9.7 kmh SW 10.1 mph16.3 kmh 30.24 in1024.0 mb 0.00 in0.0 mm 0.00 in0.0 mm 0.00 in0.0 mm
11:45 AM 54.4°F12.4°C 47.0°F8.3°C 76% 6.9 mph SW11.1 kmh SW 8.6 mph13.8 kmh 30.24 in1024.0 mb 0.00 in0.0 mm 0.00 in0.0 mm 0.00 in0.0 mm
11:50 AM 54.4°F12.4°C 47.0°F8.3°C 76% 6.4 mph SW10.3 kmh SW 8.0 mph12.9 kmh 30.24 in1024.0 mb 0.00 in0.0 mm 0.00 in0.0 mm 0.00 in0.0 mm
11:55 AM 54.4°F12.4°C 46.6°F8.1°C 75% 6.0 mph SSW9.7 kmh SSW 9.8 mph15.8 kmh 30.24 in1024.0 mb 0.00 in0.0 mm 0.00 in0.0 mm 0.00 in0.0 mm
12:00 PM 54.4°F12.4°C 46.6°F8.1°C 75% 5.8 mph SW9.3 kmh SW 9.8 mph15.8 kmh 30.24 in1024.0 mb 0.00 in0.0 mm 0.00 in0.0 mm 0.00 in0.0 mm
12:05 PM 54.8°F12.7°C 47.0°F8.3°C 75% 6.8 mph SW10.9 kmh SW 10.7 mph17.2 kmh 30.24 in1024.0 mb 0.00 in0.0 mm 0.00 in0.0 mm 0.00 in0.0 mm
12:10 PM 55.3°F12.9°C 47.2°F8.4°C 74% 7.5 mph SW12.1 kmh SW 10.7 mph17.2 kmh 30.27 in1025.1 mb 0.00 in0.0 mm 0.00 in0.0 mm 0.00 in0.0 mm
12:15 PM 55.5°F13.1°C 47.3°F8.5°C 74% 6.1 mph SW9.8 kmh SW 10.4 mph16.7 kmh 30.27 in1025.1 mb 0.00 in0.0 mm 0.00 in0.0 mm 0.00 in0.0 mm
12:20 PM 55.8°F13.2°C 47.7°F8.7°C 74% 6.3 mph SSW10.1 kmh SSW 11.6 mph18.7 kmh 30.27 in1025.1 mb 0.00 in0.0 mm 0.00 in0.0 mm 0.00 in0.0 mm
12:25 PM 56.4°F13.6°C 47.8°F8.8°C 73% 6.0 mph SSW9.7 kmh SSW 11.6 mph18.7 kmh 30.27 in1025.1 mb 0.00 in0.0 mm 0.00 in0.0 mm 0.00 in0.0 mm
12:30 PM 56.4°F13.6°C 47.8°F8.8°C 73% 5.0 mph SW8.0 kmh SW 10.4 mph16.7 kmh 30.27 in1025.1 mb 0.00 in0.0 mm 0.00 in0.0 mm 0.00 in0.0 mm
12:35 PM 56.8°F13.8°C 47.8°F8.8°C 72% 5.5 mph SW8.9 kmh SW 10.4 mph16.7 kmh 30.27 in1025.1 mb 0.00 in0.0 mm 0.00 in0.0 mm 0.00 in0.0 mm
12:40 PM 56.9°F13.8°C 48.0°F8.9°C 72% 5.9 mph SW9.5 kmh SW 9.5 mph15.3 kmh 30.27 in1025.1 mb 0.00 in0.0 mm 0.00 in0.0 mm 0.00 in0.0 mm
12:45 PM 56.9°F13.8°C 47.6°F8.7°C 71% 7.7 mph SW12.4 kmh SW 11.6 mph18.7 kmh 30.27 in1025.1 mb 0.00 in0.0 mm 0.00 in0.0 mm 0.00 in0.0 mm
12:50 PM 57.1°F13.9°C 47.8°F8.8°C 71% 8.0 mph SW12.9 kmh SW 11.6 mph18.7 kmh 30.27 in1025.1 mb 0.00 in0.0 mm 0.00 in0.0 mm 0.00 in0.0 mm
12:55 PM 57.1°F13.9°C 47.8°F8.8°C 71% 6.7 mph SW10.8 kmh SW 10.7 mph17.2 kmh 30.27 in1025.1 mb 0.00 in0.0 mm 0.00 in0.0 mm 0.00 in0.0 mm
01:00 PM 57.3°F14.1°C 47.6°F8.7°C 70% 5.7 mph SW9.2 kmh SW 14.3 mph23.0 kmh 30.27 in1025.1 mb 0.00 in0.0 mm 0.00 in0.0 mm 0.00 in0.0 mm
01:05 PM 57.7°F14.3°C 47.9°F8.8°C 70% 6.5 mph S10.5 kmh S 14.3 mph23.0 kmh 30.27 in1025.1 mb 0.00 in0.0 mm 0.00 in0.0 mm 0.00 in0.0 mm
01:10 PM 57.7°F14.3°C 47.9°F8.8°C 70% 7.6 mph SSW12.2 kmh SSW 12.8 mph20.6 kmh 30.27 in1025.1 mb 0.00 in0.0 mm 0.00 in0.0 mm 0.00 in0.0 mm
01:15 PM 57.7°F14.3°C 47.5°F8.6°C 69% 7.3 mph SW11.7 kmh SW 9.8 mph15.8 kmh 30.27 in1025.1 mb 0.00 in0.0 mm 0.00 in0.0 mm 0.00 in0.0 mm
01:20 PM 57.8°F14.3°C 47.7°F8.7°C 69% 7.5 mph SW12.1 kmh SW 13.7 mph22.0 kmh 30.27 in1025.1 mb 0.00 in0.0 mm 0.00 in0.0 mm 0.00 in0.0 mm
01:25 PM 57.7°F14.3°C 47.5°F8.6°C 69% 7.6 mph SSW12.2 kmh SSW 13.7 mph22.0 kmh 30.24 in1024.0 mb 0.00 in0.0 mm 0.00 in0.0 mm 0.00 in0.0 mm
01:30 PM 58.0°F14.4°C 47.9°F8.8°C 69% 5.4 mph SSW8.7 kmh SSW 9.5 mph15.3 kmh 30.24 in1024.0 mb 0.00 in0.0 mm 0.00 in0.0 mm 0.00 in0.0 mm
01:35 PM 58.5°F14.7°C 48.0°F8.9°C 68% 4.0 mph WSW6.4 kmh WSW 7.1 mph11.4 kmh 30.24 in1024.0 mb 0.00 in0.0 mm 0.00 in0.0 mm 0.00 in0.0 mm
01:40 PM 58.7°F14.8°C 48.2°F9.0°C 68% 5.2 mph WSW8.4 kmh WSW 11.6 mph18.7 kmh 30.27 in1025.1 mb 0.00 in0.0 mm 0.00 in0.0 mm 0.00 in0.0 mm
01:45 PM 58.5°F14.7°C 47.6°F8.7°C 67% 6.7 mph SW10.8 kmh SW 11.6 mph18.7 kmh 30.27 in1025.1 mb 0.00 in0.0 mm 0.00 in0.0 mm 0.00 in0.0 mm
01:50 PM 58.7°F14.8°C 47.8°F8.8°C 67% 5.8 mph SW9.3 kmh SW 8.3 mph13.4 kmh 30.27 in1025.1 mb 0.00 in0.0 mm 0.00 in0.0 mm 0.00 in0.0 mm
01:55 PM 58.9°F14.9°C 48.0°F8.9°C 67% 5.5 mph SW8.9 kmh SW 8.6 mph13.8 kmh 30.27 in1025.1 mb 0.00 in0.0 mm 0.00 in0.0 mm 0.00 in0.0 mm
02:00 PM 58.9°F14.9°C 48.0°F8.9°C 67% 6.4 mph SSW10.3 kmh SSW 10.7 mph17.2 kmh 30.27 in1025.1 mb 0.00 in0.0 mm 0.00 in0.0 mm 0.00 in0.0 mm
02:05 PM 58.5°F14.7°C 47.6°F8.7°C 67% 6.4 mph SSW10.3 kmh SSW 11.3 mph18.2 kmh 30.27 in1025.1 mb 0.00 in0.0 mm 0.00 in0.0 mm 0.00 in0.0 mm
02:10 PM 58.5°F14.7°C 47.2°F8.4°C 66% 5.0 mph SSW8.0 kmh SSW 11.3 mph18.2 kmh 30.27 in1025.1 mb 0.00 in0.0 mm 0.00 in0.0 mm 0.00 in0.0 mm
02:15 PM 58.5°F14.7°C 47.2°F8.4°C 66% 4.5 mph SSW7.2 kmh SSW 7.7 mph12.4 kmh 30.27 in1025.1 mb 0.00 in0.0 mm 0.00 in0.0 mm 0.00 in0.0 mm
02:20 PM 58.4°F14.7°C 47.1°F8.4°C 66% 5.1 mph SW8.2 kmh SW 8.6 mph13.8 kmh 30.27 in1025.1 mb 0.00 in0.0 mm 0.00 in0.0 mm 0.00 in0.0 mm
02:25 PM 58.7°F14.8°C 47.4°F8.6°C 66% 4.5 mph SW7.2 kmh SW 8.6 mph13.8 kmh 30.24 in1024.0 mb 0.00 in0.0 mm 0.00 in0.0 mm 0.00 in0.0 mm
02:30 PM 58.9°F14.9°C 47.6°F8.7°C 66% 5.5 mph SSW8.9 kmh SSW 8.6 mph13.8 kmh 30.24 in1024.0 mb 0.00 in0.0 mm 0.00 in0.0 mm 0.00 in0.0 mm
02:35 PM 58.9°F14.9°C 47.6°F8.7°C 66% 7.0 mph SSW11.3 kmh SSW 9.8 mph15.8 kmh 30.24 in1024.0 mb 0.00 in0.0 mm 0.00 in0.0 mm 0.00 in0.0 mm
02:40 PM 58.7°F14.8°C 47.4°F8.6°C 66% 8.4 mph SSW13.5 kmh SSW 14.0 mph22.5 kmh 30.24 in1024.0 mb 0.00 in0.0 mm 0.00 in0.0 mm 0.00 in0.0 mm
02:45 PM 58.5°F14.7°C 47.2°F8.4°C 66% 8.1 mph SSW13.0 kmh SSW 14.0 mph22.5 kmh 30.24 in1024.0 mb 0.00 in0.0 mm 0.00 in0.0 mm 0.00 in0.0 mm
02:50 PM 58.5°F14.7°C 46.8°F8.2°C 65% 8.4 mph SSW13.5 kmh SSW 14.0 mph22.5 kmh 30.24 in1024.0 mb 0.00 in0.0 mm 0.00 in0.0 mm 0.00 in0.0 mm
02:55 PM 58.4°F14.7°C 46.6°F8.1°C 65% 6.8 mph S10.9 kmh S 13.1 mph21.1 kmh 30.24 in1024.0 mb 0.00 in0.0 mm 0.00 in0.0 mm 0.00 in0.0 mm
03:00 PM 58.5°F14.7°C 46.8°F8.2°C 65% 5.4 mph SSW8.7 kmh SSW 8.9 mph14.3 kmh 30.24 in1024.0 mb 0.00 in0.0 mm 0.00 in0.0 mm 0.00 in0.0 mm
03:05 PM 58.2°F14.6°C 46.5°F8.1°C 65% 4.6 mph SW7.4 kmh SW 5.7 mph9.2 kmh 30.24 in1024.0 mb 0.00 in0.0 mm 0.00 in0.0 mm 0.00 in0.0 mm
03:10 PM 57.7°F14.3°C 46.0°F7.8°C 65% 5.7 mph SSW9.2 kmh SSW 10.7 mph17.2 kmh 30.27 in1025.1 mb 0.00 in0.0 mm 0.00 in0.0 mm 0.00 in0.0 mm
03:15 PM 57.7°F14.3°C 46.0°F7.8°C 65% 6.8 mph SSW10.9 kmh SSW 10.7 mph17.2 kmh 30.27 in1025.1 mb 0.00 in0.0 mm 0.00 in0.0 mm 0.00 in0.0 mm
03:20 PM 57.7°F14.3°C 46.4°F8.0°C 66% 7.3 mph S11.7 kmh S 10.7 mph17.2 kmh 30.27 in1025.1 mb 0.00 in0.0 mm 0.00 in0.0 mm 0.00 in0.0 mm
03:25 PM 57.5°F14.2°C 45.8°F7.7°C 65% 6.2 mph SSW10.0 kmh SSW 9.2 mph14.8 kmh 30.24 in1024.0 mb 0.00 in0.0 mm 0.00 in0.0 mm 0.00 in0.0 mm
03:30 PM 57.7°F14.3°C 46.4°F8.0°C 66% 5.7 mph SSW9.2 kmh SSW 7.7 mph12.4 kmh 30.24 in1024.0 mb 0.00 in0.0 mm 0.00 in0.0 mm 0.00 in0.0 mm
03:35 PM 57.8°F14.3°C 46.5°F8.1°C 66% 5.3 mph S8.5 kmh S 7.7 mph12.4 kmh 30.24 in1024.0 mb 0.00 in0.0 mm 0.00 in0.0 mm 0.00 in0.0 mm
03:40 PM 57.7°F14.3°C 46.4°F8.0°C 66% 4.9 mph S7.9 kmh S 6.2 mph10.0 kmh 30.24 in1024.0 mb 0.00 in0.0 mm 0.00 in0.0 mm 0.00 in0.0 mm
03:45 PM 57.7°F14.3°C 46.4°F8.0°C 66% 5.4 mph SSW8.7 kmh SSW 8.0 mph12.9 kmh 30.24 in1024.0 mb 0.00 in0.0 mm 0.00 in0.0 mm 0.00 in0.0 mm
03:50 PM 57.7°F14.3°C 46.4°F8.0°C 66% 5.6 mph S9.0 kmh S 8.0 mph12.9 kmh 30.24 in1024.0 mb 0.00 in0.0 mm 0.00 in0.0 mm 0.00 in0.0 mm
03:55 PM 57.5°F14.2°C 46.2°F7.9°C 66% 5.4 mph SSW8.7 kmh SSW 6.5 mph10.5 kmh 30.24 in1024.0 mb 0.00 in0.0 mm 0.00 in0.0 mm 0.00 in0.0 mm
04:00 PM 57.5°F14.2°C 46.6°F8.1°C 67% 6.5 mph S10.5 kmh S 8.0 mph12.9 kmh 30.24 in1024.0 mb 0.00 in0.0 mm 0.00 in0.0 mm 0.00 in0.0 mm
04:05 PM 57.1°F13.9°C 46.3°F7.9°C 67% 7.5 mph S12.1 kmh S 10.4 mph16.7 kmh 30.24 in1024.0 mb 0.00 in0.0 mm 0.00 in0.0 mm 0.00 in0.0 mm
04:10 PM 56.9°F13.8°C 46.1°F7.8°C 67% 8.0 mph S12.9 kmh S 10.4 mph16.7 kmh 30.27 in1025.1 mb 0.00 in0.0 mm 0.00 in0.0 mm 0.00 in0.0 mm
04:15 PM 56.6°F13.7°C 45.7°F7.6°C 67% 7.7 mph S12.4 kmh S 9.8 mph15.8 kmh 30.27 in1025.1 mb 0.00 in0.0 mm 0.00 in0.0 mm 0.00 in0.0 mm
04:20 PM 56.4°F13.6°C 45.6°F7.6°C 67% 6.7 mph S10.8 kmh S 9.8 mph15.8 kmh 30.27 in1025.1 mb 0.00 in0.0 mm 0.00 in0.0 mm 0.00 in0.0 mm
04:25 PM 56.2°F13.4°C 45.8°F7.7°C 68% 6.6 mph S10.6 kmh S 9.2 mph14.8 kmh 30.24 in1024.0 mb 0.00 in0.0 mm 0.00 in0.0 mm 0.00 in0.0 mm
04:30 PM 56.0°F13.3°C 45.6°F7.6°C 68% 6.4 mph S10.3 kmh S 9.2 mph14.8 kmh 30.24 in1024.0 mb 0.00 in0.0 mm 0.00 in0.0 mm 0.00 in0.0 mm
04:35 PM 55.8°F13.2°C 45.4°F7.4°C 68% 5.8 mph S9.3 kmh S 10.4 mph16.7 kmh 30.24 in1024.0 mb 0.00 in0.0 mm 0.00 in0.0 mm 0.00 in0.0 mm
04:40 PM 55.8°F13.2°C 45.4°F7.4°C 68% 5.8 mph S9.3 kmh S 10.4 mph16.7 kmh 30.27 in1025.1 mb 0.00 in0.0 mm 0.00 in0.0 mm 0.00 in0.0 mm
04:45 PM 55.5°F13.1°C 45.5°F7.5°C 69% 5.6 mph S9.0 kmh S 10.4 mph16.7 kmh 30.27 in1025.1 mb 0.00 in0.0 mm 0.00 in0.0 mm 0.00 in0.0 mm
04:50 PM 55.1°F12.8°C 45.1°F7.3°C 69% 4.7 mph S7.6 kmh S 5.4 mph8.7 kmh 30.27 in1025.1 mb 0.00 in0.0 mm 0.00 in0.0 mm 0.00 in0.0 mm
04:55 PM 55.0°F12.8°C 45.0°F7.2°C 69% 4.8 mph S7.7 kmh S 8.3 mph13.4 kmh 30.27 in1025.1 mb 0.00 in0.0 mm 0.00 in0.0 mm 0.00 in0.0 mm
05:00 PM 54.6°F12.6°C 45.0°F7.2°C 70% 4.7 mph S7.6 kmh S 8.3 mph13.4 kmh 30.27 in1025.1 mb 0.00 in0.0 mm 0.00 in0.0 mm 0.00 in0.0 mm
05:05 PM 54.6°F12.6°C 45.0°F7.2°C 70% 5.1 mph S8.2 kmh S 8.0 mph12.9 kmh 30.27 in1025.1 mb 0.00 in0.0 mm 0.00 in0.0 mm 0.00 in0.0 mm
05:10 PM 53.9°F12.2°C 44.7°F7.1°C 71% 5.6 mph S9.0 kmh S 8.0 mph12.9 kmh 30.27 in1025.1 mb 0.00 in0.0 mm 0.00 in0.0 mm 0.00 in0.0 mm
05:15 PM 53.5°F11.9°C 44.3°F6.8°C 71% 6.1 mph S9.8 kmh S 8.6 mph13.8 kmh 30.27 in1025.1 mb 0.00 in0.0 mm 0.00 in0.0 mm 0.00 in0.0 mm
05:20 PM 53.2°F11.8°C 44.4°F6.9°C 72% 6.6 mph S10.6 kmh S 8.6 mph13.8 kmh 30.27 in1025.1 mb 0.00 in0.0 mm 0.00 in0.0 mm 0.00 in0.0 mm
05:25 PM 52.8°F11.6°C 44.0°F6.7°C 72% 5.8 mph S9.3 kmh S 8.6 mph13.8 kmh 30.27 in1025.1 mb 0.00 in0.0 mm 0.00 in0.0 mm 0.00 in0.0 mm
05:30 PM 52.6°F11.4°C 43.8°F6.6°C 72% 4.5 mph S7.2 kmh S 7.7 mph12.4 kmh 30.27 in1025.1 mb 0.00 in0.0 mm 0.00 in0.0 mm 0.00 in0.0 mm
05:35 PM 52.3°F11.3°C 43.9°F6.6°C 73% 4.5 mph SSW7.2 kmh SSW 7.7 mph12.4 kmh 30.27 in1025.1 mb 0.00 in0.0 mm 0.00 in0.0 mm 0.00 in0.0 mm
05:40 PM 51.9°F11.1°C 43.5°F6.4°C 73% 4.9 mph S7.9 kmh S 8.3 mph13.4 kmh 30.27 in1025.1 mb 0.00 in0.0 mm 0.00 in0.0 mm 0.00 in0.0 mm
05:45 PM 51.5°F10.8°C 43.5°F6.4°C 74% 6.7 mph S10.8 kmh S 8.6 mph13.8 kmh 30.27 in1025.1 mb 0.00 in0.0 mm 0.00 in0.0 mm 0.00 in0.0 mm
05:50 PM 51.3°F10.7°C 43.3°F6.3°C 74% 7.5 mph S12.1 kmh S 8.6 mph13.8 kmh 30.27 in1025.1 mb 0.00 in0.0 mm 0.00 in0.0 mm 0.00 in0.0 mm
05:55 PM 51.0°F10.6°C 43.0°F6.1°C 74% 7.1 mph SSW11.4 kmh SSW 8.6 mph13.8 kmh 30.27 in1025.1 mb 0.00 in0.0 mm 0.00 in0.0 mm 0.00 in0.0 mm
06:00 PM 50.6°F10.3°C 43.0°F6.1°C 75% 6.1 mph SSW9.8 kmh SSW 8.6 mph13.8 kmh 30.27 in1025.1 mb 0.00 in0.0 mm 0.00 in0.0 mm 0.00 in0.0 mm
06:05 PM 50.5°F10.3°C 42.8°F6.0°C 75% 5.7 mph S9.2 kmh S 8.6 mph13.8 kmh 30.27 in1025.1 mb 0.00 in0.0 mm 0.00 in0.0 mm 0.00 in0.0 mm
06:10 PM 50.3°F10.2°C 43.0°F6.1°C 76% 6.1 mph S9.8 kmh S 7.7 mph12.4 kmh 30.30 in1026.1 mb 0.00 in0.0 mm 0.00 in0.0 mm 0.00 in0.0 mm
06:15 PM 49.9°F9.9°C 42.6°F5.9°C 76% 6.1 mph S9.8 kmh S 10.4 mph16.7 kmh 30.30 in1026.1 mb 0.00 in0.0 mm 0.00 in0.0 mm 0.00 in0.0 mm
06:20 PM 49.7°F9.8°C 42.5°F5.8°C 76% 5.8 mph SSE9.3 kmh SSE 10.4 mph16.7 kmh 30.30 in1026.1 mb 0.00 in0.0 mm 0.00 in0.0 mm 0.00 in0.0 mm
06:25 PM 49.5°F9.7°C 42.6°F5.9°C 77% 5.5 mph S8.9 kmh S 10.4 mph16.7 kmh 30.30 in1026.1 mb 0.00 in0.0 mm 0.00 in0.0 mm 0.00 in0.0 mm
06:30 PM 49.2°F9.6°C 42.3°F5.7°C 77% 4.8 mph SSW7.7 kmh SSW 5.7 mph9.2 kmh 30.30 in1026.1 mb 0.00 in0.0 mm 0.00 in0.0 mm 0.00 in0.0 mm
06:35 PM 49.0°F9.4°C 42.1°F5.6°C 77% 5.0 mph SSW8.0 kmh SSW 6.5 mph10.5 kmh 30.30 in1026.1 mb 0.00 in0.0 mm 0.00 in0.0 mm 0.00 in0.0 mm
06:40 PM 48.8°F9.3°C 42.3°F5.7°C 78% 6.0 mph SSW9.7 kmh SSW 8.6 mph13.8 kmh 30.30 in1026.1 mb 0.00 in0.0 mm 0.00 in0.0 mm 0.00 in0.0 mm
06:45 PM 48.7°F9.3°C 42.1°F5.6°C 78% 6.0 mph SSW9.7 kmh SSW 8.6 mph13.8 kmh 30.30 in1026.1 mb 0.00 in0.0 mm 0.00 in0.0 mm 0.00 in0.0 mm
06:50 PM 48.5°F9.2°C 42.3°F5.7°C 79% 5.9 mph SSW9.5 kmh SSW 9.8 mph15.8 kmh 30.30 in1026.1 mb 0.00 in0.0 mm 0.00 in0.0 mm 0.00 in0.0 mm
06:55 PM 48.5°F9.2°C 42.3°F5.7°C 79% 6.8 mph S10.9 kmh S 10.1 mph16.3 kmh 30.30 in1026.1 mb 0.00 in0.0 mm 0.00 in0.0 mm 0.00 in0.0 mm
07:00 PM 48.3°F9.1°C 42.1°F5.6°C 79% 6.7 mph S10.8 kmh S 10.1 mph16.3 kmh 30.30 in1026.1 mb 0.00 in0.0 mm 0.00 in0.0 mm 0.00 in0.0 mm
07:05 PM 48.1°F8.9°C 42.2°F5.7°C 80% 5.7 mph S9.2 kmh S 8.3 mph13.4 kmh 30.30 in1026.1 mb 0.00 in0.0 mm 0.00 in0.0 mm 0.00 in0.0 mm
07:10 PM 47.9°F8.8°C 42.1°F5.6°C 80% 5.3 mph S8.5 kmh S 8.0 mph12.9 kmh 30.30 in1026.1 mb 0.00 in0.0 mm 0.00 in0.0 mm 0.00 in0.0 mm
07:15 PM 47.9°F8.8°C 42.1°F5.6°C 80% 4.1 mph S6.6 kmh S 8.0 mph12.9 kmh 30.30 in1026.1 mb 0.00 in0.0 mm 0.00 in0.0 mm 0.00 in0.0 mm
07:20 PM 47.8°F8.8°C 41.9°F5.5°C 80% 3.5 mph SW5.6 kmh SW 5.4 mph8.7 kmh 30.30 in1026.1 mb 0.00 in0.0 mm 0.00 in0.0 mm 0.00 in0.0 mm
07:25 PM 47.6°F8.7°C 42.0°F5.6°C 81% 4.4 mph SSW7.1 kmh SSW 6.2 mph10.0 kmh 30.30 in1026.1 mb 0.00 in0.0 mm 0.00 in0.0 mm 0.00 in0.0 mm
07:30 PM 47.4°F8.6°C 41.9°F5.5°C 81% 4.0 mph S6.4 kmh S 6.2 mph10.0 kmh 30.30 in1026.1 mb 0.00 in0.0 mm 0.00 in0.0 mm 0.00 in0.0 mm
07:35 PM 47.4°F8.6°C 41.9°F5.5°C 81% 3.8 mph SSW6.1 kmh SSW 5.7 mph9.2 kmh 30.30 in1026.1 mb 0.00 in0.0 mm 0.00 in0.0 mm 0.00 in0.0 mm
07:40 PM 47.2°F8.4°C 41.7°F5.4°C 81% 4.2 mph SSW6.8 kmh SSW 7.1 mph11.4 kmh 30.32 in1026.8 mb 0.00 in0.0 mm 0.00 in0.0 mm 0.00 in0.0 mm
07:45 PM 47.0°F8.3°C 41.5°F5.3°C 81% 3.6 mph S5.8 kmh S 7.1 mph11.4 kmh 30.32 in1026.8 mb 0.00 in0.0 mm 0.00 in0.0 mm 0.00 in0.0 mm
07:50 PM 46.8°F8.2°C 41.6°F5.3°C 82% 1.8 mph S2.9 kmh S 4.8 mph7.7 kmh 30.32 in1026.8 mb 0.00 in0.0 mm 0.00 in0.0 mm 0.00 in0.0 mm
07:55 PM 46.8°F8.2°C 41.6°F5.3°C 82% 1.1 mph SSW1.8 kmh SSW 4.2 mph6.8 kmh 30.32 in1026.8 mb 0.00 in0.0 mm 0.00 in0.0 mm 0.00 in0.0 mm
08:00 PM 46.5°F8.1°C 41.3°F5.2°C 82% 2.7 mph S4.3 kmh S 5.4 mph8.7 kmh 30.32 in1026.8 mb 0.00 in0.0 mm 0.00 in0.0 mm 0.00 in0.0 mm
08:05 PM 46.5°F8.1°C 41.3°F5.2°C 82% 3.2 mph S5.1 kmh S 5.7 mph9.2 kmh 30.32 in1026.8 mb 0.00 in0.0 mm 0.00 in0.0 mm 0.00 in0.0 mm
08:10 PM 46.3°F7.9°C 41.4°F5.2°C 83% 3.4 mph S5.5 kmh S 5.7 mph9.2 kmh 30.32 in1026.8 mb 0.00 in0.0 mm 0.00 in0.0 mm 0.00 in0.0 mm
08:15 PM 46.3°F7.9°C 41.4°F5.2°C 83% 2.9 mph S4.7 kmh S 5.4 mph8.7 kmh 30.32 in1026.8 mb 0.00 in0.0 mm 0.00 in0.0 mm 0.00 in0.0 mm
08:20 PM 46.1°F7.8°C 41.3°F5.2°C 83% 3.6 mph SSW5.8 kmh SSW 5.1 mph8.2 kmh 30.32 in1026.8 mb 0.00 in0.0 mm 0.00 in0.0 mm 0.00 in0.0 mm
08:25 PM 46.1°F7.8°C 41.3°F5.2°C 83% 3.9 mph SSW6.3 kmh SSW 5.1 mph8.2 kmh 30.32 in1026.8 mb 0.00 in0.0 mm 0.00 in0.0 mm 0.00 in0.0 mm
08:30 PM 46.1°F7.8°C 41.3°F5.2°C 83% 5.2 mph S8.4 kmh S 10.4 mph16.7 kmh 30.32 in1026.8 mb 0.00 in0.0 mm 0.00 in0.0 mm 0.00 in0.0 mm
08:35 PM 46.3°F7.9°C 41.7°F5.4°C 84% 6.8 mph SSW10.9 kmh SSW 10.7 mph17.2 kmh 30.32 in1026.8 mb 0.00 in0.0 mm 0.00 in0.0 mm 0.00 in0.0 mm
08:40 PM 46.3°F7.9°C 41.7°F5.4°C 84% 7.5 mph S12.1 kmh S 10.7 mph17.2 kmh 30.32 in1026.8 mb 0.00 in0.0 mm 0.00 in0.0 mm 0.00 in0.0 mm
08:45 PM 46.3°F7.9°C 41.7°F5.4°C 84% 7.9 mph S12.7 kmh S 10.7 mph17.2 kmh 30.32 in1026.8 mb 0.00 in0.0 mm 0.00 in0.0 mm 0.00 in0.0 mm
08:50 PM 46.3°F7.9°C 41.7°F5.4°C 84% 7.5 mph S12.1 kmh S 10.7 mph17.2 kmh 30.32 in1026.8 mb 0.00 in0.0 mm 0.00 in0.0 mm 0.00 in0.0 mm
08:55 PM 46.1°F7.8°C 41.6°F5.3°C 84% 4.6 mph S7.4 kmh S 7.1 mph11.4 kmh 30.35 in1027.8 mb 0.00 in0.0 mm 0.00 in0.0 mm 0.00 in0.0 mm
09:00 PM 46.1°F7.8°C 41.6°F5.3°C 84% 4.2 mph S6.8 kmh S 6.2 mph10.0 kmh 30.35 in1027.8 mb 0.00 in0.0 mm 0.00 in0.0 mm 0.00 in0.0 mm
09:05 PM 45.8°F7.7°C 41.2°F5.1°C 84% 3.2 mph S5.1 kmh S 6.2 mph10.0 kmh 30.35 in1027.8 mb 0.00 in0.0 mm 0.00 in0.0 mm 0.00 in0.0 mm
09:10 PM 45.6°F7.6°C 41.3°F5.2°C 85% 2.3 mph S3.7 kmh S 4.5 mph7.2 kmh 30.35 in1027.8 mb 0.00 in0.0 mm 0.00 in0.0 mm 0.00 in0.0 mm
09:15 PM 45.6°F7.6°C 41.3°F5.2°C 85% 3.3 mph S5.3 kmh S 6.2 mph10.0 kmh 30.35 in1027.8 mb 0.00 in0.0 mm 0.00 in0.0 mm 0.00 in0.0 mm
09:20 PM 45.6°F7.6°C 41.3°F5.2°C 85% 3.7 mph S6.0 kmh S 6.2 mph10.0 kmh 30.35 in1027.8 mb 0.00 in0.0 mm 0.00 in0.0 mm 0.00 in0.0 mm
09:25 PM 45.4°F7.4°C 41.2°F5.1°C 85% 4.0 mph S6.4 kmh S 7.1 mph11.4 kmh 30.35 in1027.8 mb 0.00 in0.0 mm 0.00 in0.0 mm 0.00 in0.0 mm
09:30 PM 45.2°F7.3°C 41.0°F5.0°C 85% 4.0 mph S6.4 kmh S 7.1 mph11.4 kmh 30.35 in1027.8 mb 0.00 in0.0 mm 0.00 in0.0 mm 0.00 in0.0 mm
09:35 PM 45.4°F7.4°C 41.2°F5.1°C 85% 3.8 mph S6.1 kmh S 7.1 mph11.4 kmh 30.35 in1027.8 mb 0.00 in0.0 mm 0.00 in0.0 mm 0.00 in0.0 mm
09:40 PM 45.4°F7.4°C 41.5°F5.3°C 86% 4.1 mph S6.6 kmh S 5.4 mph8.7 kmh 30.35 in1027.8 mb 0.00 in0.0 mm 0.00 in0.0 mm 0.00 in0.0 mm
09:45 PM 45.4°F7.4°C 41.5°F5.3°C 86% 3.5 mph S5.6 kmh S 5.4 mph8.7 kmh 30.35 in1027.8 mb 0.00 in0.0 mm 0.00 in0.0 mm 0.00 in0.0 mm
09:50 PM 45.4°F7.4°C 41.5°F5.3°C 86% 1.8 mph SSW2.9 kmh SSW 4.5 mph7.2 kmh 30.35 in1027.8 mb 0.00 in0.0 mm 0.00 in0.0 mm 0.00 in0.0 mm
09:55 PM 45.4°F7.4°C 41.5°F5.3°C 86% 1.7 mph S2.7 kmh S 3.6 mph5.8 kmh 30.35 in1027.8 mb 0.00 in0.0 mm 0.00 in0.0 mm 0.00 in0.0 mm
10:00 PM 45.4°F7.4°C 41.5°F5.3°C 86% 1.7 mph S2.7 kmh S 3.6 mph5.8 kmh 30.35 in1027.8 mb 0.00 in0.0 mm 0.00 in0.0 mm 0.00 in0.0 mm
10:05 PM 45.2°F7.3°C 41.3°F5.2°C 86% 1.1 mph SW1.8 kmh SW 3.9 mph6.3 kmh 30.35 in1027.8 mb 0.00 in0.0 mm 0.00 in0.0 mm 0.00 in0.0 mm
10:10 PM 45.2°F7.3°C 41.3°F5.2°C 86% 1.2 mph SW1.9 kmh SW 3.9 mph6.3 kmh 30.35 in1027.8 mb 0.00 in0.0 mm 0.00 in0.0 mm 0.00 in0.0 mm
10:15 PM 45.0°F7.2°C 41.4°F5.2°C 87% 1.0 mph S1.6 kmh S 3.9 mph6.3 kmh 30.35 in1027.8 mb 0.00 in0.0 mm 0.00 in0.0 mm 0.00 in0.0 mm
10:20 PM 44.9°F7.2°C 41.2°F5.1°C 87% 1.0 mph SSW1.6 kmh SSW 5.1 mph8.2 kmh 30.35 in1027.8 mb 0.00 in0.0 mm 0.00 in0.0 mm 0.00 in0.0 mm
10:25 PM 44.9°F7.2°C 41.2°F5.1°C 87% 1.2 mph SSW1.9 kmh SSW 5.1 mph8.2 kmh 30.35 in1027.8 mb 0.00 in0.0 mm 0.00 in0.0 mm 0.00 in0.0 mm
10:30 PM 44.5°F6.9°C 40.9°F4.9°C 87% 1.0 mph SSW1.6 kmh SSW 5.1 mph8.2 kmh 30.35 in1027.8 mb 0.00 in0.0 mm 0.00 in0.0 mm 0.00 in0.0 mm
10:35 PM 44.2°F6.8°C 40.5°F4.7°C 87% 0.6 mph SE1.0 kmh SE 2.7 mph4.3 kmh 30.35 in1027.8 mb 0.00 in0.0 mm 0.00 in0.0 mm 0.00 in0.0 mm
10:40 PM 44.0°F6.7°C 40.3°F4.6°C 87% 0.5 mph E0.8 kmh E 2.7 mph4.3 kmh 30.35 in1027.8 mb 0.00 in0.0 mm 0.00 in0.0 mm 0.00 in0.0 mm
10:45 PM 44.0°F6.7°C 40.3°F4.6°C 87% 0.9 mph S1.4 kmh S 3.0 mph4.8 kmh 30.35 in1027.8 mb 0.00 in0.0 mm 0.00 in0.0 mm 0.00 in0.0 mm
10:50 PM 44.0°F6.7°C 40.3°F4.6°C 87% 1.8 mph SSE2.9 kmh SSE 4.5 mph7.2 kmh 30.35 in1027.8 mb 0.00 in0.0 mm 0.00 in0.0 mm 0.00 in0.0 mm
10:55 PM 44.0°F6.7°C 40.3°F4.6°C 87% 1.3 mph SE2.1 kmh SE 4.5 mph7.2 kmh 30.35 in1027.8 mb 0.00 in0.0 mm 0.00 in0.0 mm 0.00 in0.0 mm
11:00 PM 43.8°F6.6°C 40.2°F4.6°C 87% 0.5 mph S0.8 kmh S 4.5 mph7.2 kmh 30.35 in1027.8 mb 0.00 in0.0 mm 0.00 in0.0 mm 0.00 in0.0 mm
11:05 PM 43.8°F6.6°C 40.2°F4.6°C 87% 1.7 mph S2.7 kmh S 4.5 mph7.2 kmh 30.35 in1027.8 mb 0.00 in0.0 mm 0.00 in0.0 mm 0.00 in0.0 mm
11:10 PM 43.8°F6.6°C 40.2°F4.6°C 87% 3.9 mph S6.3 kmh S 5.4 mph8.7 kmh 30.35 in1027.8 mb 0.00 in0.0 mm 0.00 in0.0 mm 0.00 in0.0 mm
11:15 PM 43.8°F6.6°C 40.2°F4.6°C 87% 3.8 mph S6.1 kmh S 5.4 mph8.7 kmh 30.35 in1027.8 mb 0.00 in0.0 mm 0.00 in0.0 mm 0.00 in0.0 mm
11:20 PM 43.8°F6.6°C 40.5°F4.7°C 88% 1.8 mph S2.9 kmh S 5.1 mph8.2 kmh 30.35 in1027.8 mb 0.00 in0.0 mm 0.00 in0.0 mm 0.00 in0.0 mm
11:25 PM 43.6°F6.4°C 40.3°F4.6°C 88% 1.9 mph SE3.1 kmh SE 6.2 mph10.0 kmh 30.35 in1027.8 mb 0.00 in0.0 mm 0.00 in0.0 mm 0.00 in0.0 mm
11:30 PM 43.6°F6.4°C 40.3°F4.6°C 88% 2.6 mph SE4.2 kmh SE 6.2 mph10.0 kmh 30.35 in1027.8 mb 0.00 in0.0 mm 0.00 in0.0 mm 0.00 in0.0 mm
11:35 PM 43.6°F6.4°C 40.3°F4.6°C 88% 2.6 mph S4.2 kmh S 6.0 mph9.7 kmh 30.35 in1027.8 mb 0.00 in0.0 mm 0.00 in0.0 mm 0.00 in0.0 mm
11:40 PM 43.6°F6.4°C 40.3°F4.6°C 88% 3.4 mph SSW5.5 kmh SSW 6.0 mph9.7 kmh 30.35 in1027.8 mb 0.00 in0.0 mm 0.00 in0.0 mm 0.00 in0.0 mm
11:45 PM 43.4°F6.3°C 40.1°F4.5°C 88% 3.8 mph SSW6.1 kmh SSW 5.4 mph8.7 kmh 30.35 in1027.8 mb 0.00 in0.0 mm 0.00 in0.0 mm 0.00 in0.0 mm
11:50 PM 43.6°F6.4°C 40.3°F4.6°C 88% 4.3 mph S6.9 kmh S 5.4 mph8.7 kmh 30.35 in1027.8 mb 0.00 in0.0 mm 0.00 in0.0 mm 0.00 in0.0 mm
11:55 PM 43.6°F6.4°C 40.6°F4.8°C 89% 5.1 mph S8.2 kmh S 7.1 mph11.4 kmh 30.35 in1027.8 mb 0.00 in0.0 mm 0.00 in0.0 mm 0.00 in0.0 mm